CYQXCYJT

Guest
Details From CYQX - Gander Intl
To CYJT - Stephenville
Flight Number -
Tags Generated
Created
Modified
Stats Distance 160 nm / 296 km
Max Altitude 0 ft / 0 m
Waypoints 2
Social Downloads 1
Likes 0
Share VATSIM

Download

Looking for another format? Having issues loading an existing format? Contact us
Advertisement - Login to hide

Notes

Generated

Route

CYQX CYJT

ID Type Via Altitude Latitude Longitude Leg Dist Tot Dist Heading (true) Name
O CYQX APT - 0 ft / 0 m 48.94339˚ -54.56803˚ - 0 nm - GANDER INTL
O CYJT APT - 0 ft / 0 m 48.53389˚ -58.55250˚ 159 nm 159 nm 263° / 260° -

Altitude Profile

Advertisement - Login to hide

CYQX

Details ICAO CYQX (YQX)
Name GANDER INTL
Region Canada
Timezone America/St_Johns (UTC-2.5)
Stats Elevation 496 ft / 151 m (AMSL)
Location 48.942962° -54.565864°
Runways 3
Magnetic Variation 18.894° W

METAR

CYQX 260800Z 23008KT 20SM FEW050 13/06 A2982 RMK CU1 SLP101 DENSITY ALT 500FT

Decode

TAF

TAF CYQX 260538Z 2606/2706 24010KT P6SM SKC FM261200 20012KT P6SM SCT050 BECMG 2614/2616 21015G25KT FM262100 25015G25KT P6SM -SHRA BKN050 BECMG 2621/2623 28008KT FM270200 24008KT P6SM FEW020 RMK NXT FCST BY 261200Z

Decode

Departure Runways

ID Width Length Bearing (true) Bearing (mag) Surface Threshold Offset Overrun Length
03 200 ft / 61 m 10,230 ft / 3,118 m 10.93° 29.82° Asphalt 0 ft / 0 m 200 ft / 61 m
09 50 ft / 15 m 1,874 ft / 571 m 62.63° 81.52° Asphalt 0 ft / 0 m 75 ft / 23 m
13 200 ft / 61 m 8,855 ft / 2,699 m 107.30° 126.19° Asphalt 0 ft / 0 m 200 ft / 61 m
21 200 ft / 61 m 10,230 ft / 3,118 m 190.94° 209.83° Asphalt 0 ft / 0 m 199 ft / 61 m
27 50 ft / 15 m 1,874 ft / 571 m 242.64° 261.53° Asphalt 0 ft / 0 m 250 ft / 76 m
31 200 ft / 61 m 8,855 ft / 2,699 m 287.33° 306.22° Asphalt 0 ft / 0 m 201 ft / 61 m

CYJT

Details ICAO CYJT (YJT)
Name STEPHENVILLE
Region Canada
Timezone America/St_Johns (UTC-2.5)
Stats Elevation 80 ft / 24 m (AMSL)
Location 48.541811° -58.551488°
Runways 2
Magnetic Variation 19.005° W

METAR

CYJT 260800Z 04005KT 15SM FEW080 10/08 A2978 RMK AC2 SLP088

Decode

TAF

TAF CYJT 260538Z 2606/2706 VRB03KT P6SM SKC FM261000 15008KT P6SM BKN060 TEMPO 2610/2616 P6SM -SHRA BECMG 2613/2615 25010KT FM261600 25010KT P6SM -SHRA BKN030 TEMPO 2616/2619 P6SM NSW FM261900 26012KT P6SM -DZ SCT005 OVC020 FM262100 25012KT 5SM -SHRA BR OVC005 PROB30 2621/2705 3/4SM BR BKN002 OVC005 FM270500 24006KT 3SM BR BKN003 RMK NXT FCST BY 261200Z

Decode

Destination Runways

ID Width Length Bearing (true) Bearing (mag) Surface Threshold Offset Overrun Length
02 150 ft / 46 m 3,770 ft / 1,149 m 355.50° 14.51° Asphalt 0 ft / 0 m 0 ft / 0 m
09 200 ft / 61 m 9,970 ft / 3,039 m 71.61° 90.62° Asphalt 0 ft / 0 m 1,000 ft / 305 m
20 150 ft / 46 m 3,770 ft / 1,149 m 175.50° 194.51° Asphalt 0 ft / 0 m 0 ft / 0 m
27 200 ft / 61 m 9,970 ft / 3,039 m 251.64° 270.65° Asphalt 0 ft / 0 m 1,000 ft / 305 m

Popular Alternatives